createdAt,value
2023-01-13T00:00:11.014Z,2.20
2023-01-13T00:01:10.993Z,1.80
2023-01-13T00:02:11.038Z,2.10
2023-01-13T00:03:10.988Z,2.00
2023-01-13T00:04:10.957Z,1.80
2023-01-13T00:05:11.013Z,1.90
2023-01-13T00:06:10.927Z,2.10
2023-01-13T00:07:10.942Z,2.10
2023-01-13T00:08:10.930Z,2.00
2023-01-13T00:09:10.910Z,2.10
2023-01-13T00:10:10.912Z,2.00
2023-01-13T00:11:10.897Z,1.90
2023-01-13T00:12:10.907Z,1.90
2023-01-13T00:13:10.884Z,1.90
2023-01-13T00:14:10.855Z,1.70
2023-01-13T00:15:10.844Z,2.00
2023-01-13T00:16:10.871Z,1.20
2023-01-13T00:17:10.803Z,1.40
2023-01-13T00:18:10.828Z,1.40
2023-01-13T00:19:10.778Z,1.20
2023-01-13T00:20:10.768Z,0.90
2023-01-13T00:21:10.764Z,1.40
2023-01-13T00:22:10.748Z,1.50
2023-01-13T00:23:10.770Z,1.10
2023-01-13T00:24:10.727Z,1.30
2023-01-13T00:25:10.716Z,1.40
2023-01-13T00:26:10.701Z,1.20
2023-01-13T00:27:10.701Z,1.10
2023-01-13T00:28:10.704Z,0.90
2023-01-13T00:29:10.669Z,0.90
2023-01-13T00:30:10.672Z,1.10
2023-01-13T00:31:10.706Z,1.00
2023-01-13T00:32:10.637Z,0.90
2023-01-13T00:33:10.633Z,0.90
2023-01-13T00:34:10.613Z,1.20
2023-01-13T00:35:10.619Z,1.00
2023-01-13T00:36:10.628Z,1.30
2023-01-13T00:37:10.584Z,1.10
2023-01-13T00:38:10.610Z,1.10
2023-01-13T00:39:10.567Z,1.40
2023-01-13T00:40:10.550Z,1.20
2023-01-13T00:41:10.553Z,1.10
2023-01-13T00:42:10.547Z,1.20
2023-01-13T00:43:10.532Z,1.00
2023-01-13T00:44:10.515Z,1.60
2023-01-13T00:45:10.488Z,1.00
2023-01-13T00:46:10.514Z,1.30
2023-01-13T00:47:10.469Z,1.10
2023-01-13T00:48:10.484Z,1.50
2023-01-13T00:49:10.445Z,1.00
2023-01-13T00:50:10.442Z,1.30
2023-01-13T00:51:10.429Z,1.20
2023-01-13T00:52:10.413Z,1.10
2023-01-13T00:53:10.417Z,1.20
2023-01-13T00:54:10.433Z,1.20
2023-01-13T00:55:10.379Z,1.10
2023-01-13T00:56:10.395Z,0.90
2023-01-13T00:57:10.359Z,1.00
2023-01-13T00:58:10.358Z,0.90
2023-01-13T00:59:10.345Z,1.60
2023-01-13T01:00:10.333Z,1.00
2023-01-13T01:01:10.521Z,1.00
2023-01-13T01:02:10.518Z,1.00
2023-01-13T01:03:10.324Z,1.00
2023-01-13T01:04:10.287Z,1.40
2023-01-13T01:05:10.270Z,0.90
2023-01-13T01:06:10.256Z,0.90
2023-01-13T01:07:10.278Z,1.30
2023-01-13T01:08:10.244Z,1.40
2023-01-13T01:09:10.228Z,1.00
2023-01-13T01:10:10.225Z,0.90
2023-01-13T01:11:10.204Z,1.00
2023-01-13T01:12:10.198Z,1.10
2023-01-13T01:13:10.208Z,1.60
2023-01-13T01:14:10.167Z,1.10
2023-01-13T01:15:10.210Z,1.30
2023-01-13T01:16:10.182Z,1.30
2023-01-13T01:17:10.164Z,1.30
2023-01-13T01:18:10.157Z,1.60
2023-01-13T01:19:10.128Z,1.00
2023-01-13T01:20:10.103Z,1.20
2023-01-13T01:21:10.123Z,1.20
2023-01-13T01:22:10.083Z,1.60
2023-01-13T01:23:10.101Z,1.70
2023-01-13T01:24:10.066Z,1.50
2023-01-13T01:25:10.099Z,1.60
2023-01-13T01:26:10.051Z,1.70
2023-01-13T01:27:10.041Z,1.30
2023-01-13T01:28:10.031Z,1.40
2023-01-13T01:29:10.011Z,1.40
2023-01-13T01:30:10.002Z,1.40
2023-01-13T01:31:10.025Z,1.60
2023-01-13T01:32:09.970Z,2.00
2023-01-13T01:33:10.006Z,1.20
2023-01-13T01:34:09.952Z,1.70
2023-01-13T01:35:09.940Z,1.40
2023-01-13T01:36:09.939Z,1.80
2023-01-13T01:37:09.936Z,2.20
2023-01-13T01:38:09.930Z,1.60
2023-01-13T01:39:09.897Z,1.50
2023-01-13T01:40:09.896Z,1.20
2023-01-13T01:41:09.878Z,1.60
2023-01-13T01:42:09.862Z,1.40
2023-01-13T01:43:09.863Z,1.30
2023-01-13T01:44:09.849Z,1.40
2023-01-13T01:45:09.837Z,1.10
2023-01-13T01:46:09.826Z,2.20
2023-01-13T01:47:09.820Z,1.20
2023-01-13T01:48:09.825Z,1.50
2023-01-13T01:49:09.785Z,1.40
2023-01-13T01:50:09.783Z,1.80
2023-01-13T01:51:09.792Z,1.60
2023-01-13T01:52:09.761Z,1.60
2023-01-13T01:53:09.755Z,1.60
2023-01-13T01:54:09.739Z,1.50
2023-01-13T01:55:09.724Z,1.20
2023-01-13T01:56:09.723Z,1.50
2023-01-13T01:57:09.722Z,1.60
2023-01-13T01:58:09.704Z,1.20
2023-01-13T01:59:09.677Z,1.40
2023-01-13T02:00:09.714Z,1.50
2023-01-13T02:01:09.825Z,1.30
2023-01-13T02:02:09.870Z,1.50
2023-01-13T02:03:09.651Z,2.30
2023-01-13T02:04:09.622Z,1.20
2023-01-13T02:05:09.619Z,1.60
2023-01-13T02:06:09.607Z,1.40
2023-01-13T02:07:09.621Z,2.30
2023-01-13T02:08:09.598Z,1.80
2023-01-13T02:09:09.601Z,1.70
2023-01-13T02:10:09.635Z,1.60
2023-01-13T02:11:09.585Z,1.70
2023-01-13T02:12:09.592Z,1.70
2023-01-13T02:13:09.561Z,1.70
2023-01-13T02:14:09.546Z,1.50
2023-01-13T02:15:09.500Z,2.10
2023-01-13T02:16:09.549Z,2.60
2023-01-13T02:17:09.486Z,1.90
2023-01-13T02:18:09.485Z,2.20
2023-01-13T02:19:09.483Z,2.30
2023-01-13T02:20:09.454Z,2.10
2023-01-13T02:21:09.472Z,1.70
2023-01-13T02:22:09.440Z,2.00
2023-01-13T02:23:09.427Z,2.10
2023-01-13T02:24:09.416Z,2.30
2023-01-13T02:25:09.394Z,2.30
2023-01-13T02:26:09.382Z,2.10
2023-01-13T02:27:09.380Z,1.90
2023-01-13T02:28:09.385Z,2.00
2023-01-13T02:29:09.360Z,2.30
2023-01-13T02:30:09.358Z,2.40
2023-01-13T02:31:09.326Z,2.00
2023-01-13T02:32:09.321Z,1.90
2023-01-13T02:33:09.331Z,2.20
2023-01-13T02:34:09.311Z,1.70
2023-01-13T02:35:09.288Z,1.90
2023-01-13T02:36:09.302Z,1.90
2023-01-13T02:37:09.278Z,2.00
2023-01-13T02:38:09.278Z,2.20
2023-01-13T02:39:09.251Z,1.80
2023-01-13T02:40:09.244Z,2.00
2023-01-13T02:41:09.227Z,1.90
2023-01-13T02:42:09.233Z,2.20
2023-01-13T02:43:09.236Z,2.30
2023-01-13T02:44:09.198Z,1.80
2023-01-13T02:45:09.192Z,1.60
2023-01-13T02:46:09.220Z,2.30
2023-01-13T02:47:09.188Z,2.00
2023-01-13T02:48:09.176Z,1.90
2023-01-13T02:49:09.143Z,2.20
2023-01-13T02:50:09.127Z,2.10
2023-01-13T02:51:09.129Z,2.00
2023-01-13T02:52:09.120Z,2.10
2023-01-13T02:53:09.119Z,2.00
2023-01-13T02:54:09.099Z,1.90
2023-01-13T02:55:09.078Z,1.90
2023-01-13T02:56:09.063Z,2.40
2023-01-13T02:57:09.063Z,2.00
2023-01-13T02:58:09.068Z,2.30
2023-01-13T02:59:09.035Z,2.00
2023-01-13T03:00:08.999Z,1.90
2023-01-13T03:01:09.119Z,2.30
2023-01-13T03:02:09.204Z,2.30
2023-01-13T03:03:08.972Z,2.80
2023-01-13T03:04:08.972Z,2.10
2023-01-13T03:05:08.955Z,2.10
2023-01-13T03:06:08.945Z,2.20
2023-01-13T03:07:08.926Z,2.30
2023-01-13T03:08:08.915Z,2.30
2023-01-13T03:09:08.918Z,2.00
2023-01-13T03:10:08.896Z,2.10
2023-01-13T03:11:08.882Z,2.40
2023-01-13T03:12:08.868Z,2.10
2023-01-13T03:13:08.859Z,2.00
2023-01-13T03:14:08.875Z,1.90
2023-01-13T03:15:08.830Z,2.60
2023-01-13T03:16:08.957Z,2.00
2023-01-13T03:17:08.818Z,1.90
2023-01-13T03:18:08.806Z,1.90
2023-01-13T03:19:08.815Z,2.60
2023-01-13T03:20:08.794Z,2.00
2023-01-13T03:21:08.764Z,3.00
2023-01-13T03:22:08.755Z,3.10
2023-01-13T03:23:08.755Z,2.50
2023-01-13T03:24:08.764Z,2.50
2023-01-13T03:25:08.734Z,2.20
2023-01-13T03:26:08.726Z,2.80
2023-01-13T03:27:08.706Z,2.10
2023-01-13T03:28:08.687Z,2.80
2023-01-13T03:29:08.718Z,2.70
2023-01-13T03:30:08.676Z,2.60
2023-01-13T03:31:08.719Z,2.50
2023-01-13T03:32:08.665Z,2.80
2023-01-13T03:33:08.641Z,2.30
2023-01-13T03:34:08.676Z,2.70
2023-01-13T03:35:08.636Z,3.00
2023-01-13T03:36:08.615Z,2.70
2023-01-13T03:37:08.615Z,3.00
2023-01-13T03:38:08.610Z,2.90
2023-01-13T03:39:16.187Z,3.40
2023-01-13T03:40:08.567Z,2.20
2023-01-13T03:41:08.550Z,3.10
2023-01-13T03:42:08.540Z,2.80
2023-01-13T03:43:08.526Z,2.10
2023-01-13T03:44:08.541Z,3.50
2023-01-13T03:45:08.511Z,3.00
2023-01-13T03:46:08.585Z,2.60
2023-01-13T03:47:08.491Z,2.90
2023-01-13T03:48:08.483Z,2.70
2023-01-13T03:49:08.494Z,3.20
2023-01-13T03:50:08.463Z,2.40
2023-01-13T03:51:08.454Z,2.90
2023-01-13T03:52:08.441Z,2.40
2023-01-13T03:53:08.424Z,2.30
2023-01-13T03:54:08.491Z,2.20
2023-01-13T03:55:08.400Z,3.10
2023-01-13T03:56:08.387Z,2.40
2023-01-13T03:57:08.377Z,2.30
2023-01-13T03:58:08.416Z,2.50
2023-01-13T03:59:08.381Z,2.60
2023-01-13T04:00:08.344Z,2.90
2023-01-13T04:01:08.437Z,2.30
2023-01-13T04:02:08.433Z,2.80
2023-01-13T04:03:08.309Z,2.50
2023-01-13T04:04:08.407Z,2.70
2023-01-13T04:05:08.284Z,2.50
2023-01-13T04:06:08.274Z,2.50
2023-01-13T04:07:08.264Z,2.70
2023-01-13T04:08:08.255Z,2.30
2023-01-13T04:09:08.263Z,2.60
2023-01-13T04:10:08.240Z,2.30
2023-01-13T04:11:08.219Z,2.50
2023-01-13T04:12:08.203Z,2.20
2023-01-13T04:13:08.206Z,2.40
2023-01-13T04:14:08.205Z,2.10
2023-01-13T04:15:08.175Z,2.20
2023-01-13T04:16:08.186Z,2.40
2023-01-13T04:17:08.152Z,2.30
2023-01-13T04:18:08.143Z,2.50
2023-01-13T04:19:08.146Z,2.70
2023-01-13T04:20:08.117Z,3.20
2023-01-13T04:21:08.118Z,2.40
2023-01-13T04:22:08.098Z,2.40
2023-01-13T04:23:08.089Z,3.10
2023-01-13T04:24:08.102Z,2.50
2023-01-13T04:25:08.082Z,2.20
2023-01-13T04:26:08.057Z,2.20
2023-01-13T04:27:08.045Z,3.20
2023-01-13T04:28:08.050Z,2.20
2023-01-13T04:29:08.057Z,2.60
2023-01-13T04:30:08.011Z,2.40
2023-01-13T04:31:08.054Z,3.00
2023-01-13T04:32:08.001Z,2.70
2023-01-13T04:33:07.984Z,3.00
2023-01-13T04:34:07.987Z,2.70
2023-01-13T04:35:07.962Z,2.80
2023-01-13T04:36:07.954Z,3.20
2023-01-13T04:37:07.958Z,2.50
2023-01-13T04:38:07.945Z,2.60
2023-01-13T04:39:07.930Z,2.20
2023-01-13T04:40:07.909Z,2.30
2023-01-13T04:41:07.899Z,3.00
2023-01-13T04:42:07.899Z,2.90
2023-01-13T04:43:07.871Z,3.40
2023-01-13T04:44:07.878Z,2.90
2023-01-13T04:45:07.861Z,2.60
2023-01-13T04:46:07.863Z,2.90
2023-01-13T04:47:07.853Z,2.50
2023-01-13T04:48:07.827Z,2.90
2023-01-13T04:49:07.828Z,3.10
2023-01-13T04:50:07.793Z,2.70
2023-01-13T04:51:07.783Z,2.50
2023-01-13T04:52:07.765Z,2.50
2023-01-13T04:53:07.791Z,2.70
2023-01-13T04:54:07.762Z,2.80
2023-01-13T04:55:07.753Z,2.40
2023-01-13T04:56:07.733Z,2.40
2023-01-13T04:57:07.720Z,2.30
2023-01-13T04:58:07.702Z,2.60
2023-01-13T04:59:07.723Z,2.70
2023-01-13T05:00:07.673Z,3.00
2023-01-13T05:01:07.728Z,2.90
2023-01-13T05:02:07.715Z,2.40
2023-01-13T05:03:07.657Z,2.60
2023-01-13T05:04:07.671Z,3.00
2023-01-13T05:05:07.695Z,3.30
2023-01-13T05:06:07.638Z,2.30
2023-01-13T05:07:07.612Z,2.50
2023-01-13T05:08:07.597Z,2.60
2023-01-13T05:09:07.611Z,2.80
2023-01-13T05:10:07.575Z,3.30
2023-01-13T05:11:07.563Z,2.90
2023-01-13T05:12:07.565Z,2.50
2023-01-13T05:13:07.563Z,3.20
2023-01-13T05:14:07.564Z,2.90
2023-01-13T05:15:07.522Z,2.80
2023-01-13T05:16:09.823Z,2.60
2023-01-13T05:17:07.502Z,3.00
2023-01-13T05:18:07.490Z,2.80
2023-01-13T05:19:07.492Z,2.90
2023-01-13T05:20:07.484Z,2.80
2023-01-13T05:21:07.467Z,2.70
2023-01-13T05:22:07.452Z,3.10
2023-01-13T05:23:07.432Z,2.90
2023-01-13T05:24:07.438Z,3.30
2023-01-13T05:25:07.416Z,2.80
2023-01-13T05:26:07.393Z,2.60
2023-01-13T05:27:07.400Z,3.80
2023-01-13T05:28:07.368Z,3.40
2023-01-13T05:29:07.400Z,3.40
2023-01-13T05:30:07.355Z,3.60
2023-01-13T05:31:07.416Z,3.00
2023-01-13T05:32:07.348Z,3.10
2023-01-13T05:33:07.325Z,2.90
2023-01-13T05:34:07.333Z,3.50
2023-01-13T05:35:07.295Z,2.80
2023-01-13T05:36:07.288Z,2.50
2023-01-13T05:37:07.280Z,3.10
2023-01-13T05:38:07.270Z,3.40
2023-01-13T05:39:07.295Z,3.70
2023-01-13T05:40:07.243Z,3.00
2023-01-13T05:41:07.241Z,3.30
2023-01-13T05:42:07.234Z,2.60
2023-01-13T05:43:07.224Z,2.80
2023-01-13T05:44:07.264Z,3.20
2023-01-13T05:45:07.186Z,2.80
2023-01-13T05:46:07.250Z,2.90
2023-01-13T05:47:07.177Z,3.30
2023-01-13T05:48:07.163Z,3.10
2023-01-13T05:49:07.205Z,3.50
2023-01-13T05:50:07.146Z,2.60
2023-01-13T05:51:07.132Z,3.00
2023-01-13T05:52:07.120Z,3.20
2023-01-13T05:53:07.116Z,3.10
2023-01-13T05:54:07.110Z,3.00
2023-01-13T05:55:07.113Z,3.10
2023-01-13T05:56:07.100Z,3.00
2023-01-13T05:57:07.073Z,3.60
2023-01-13T05:58:07.064Z,3.00
2023-01-13T05:59:07.050Z,3.00
2023-01-13T06:00:07.070Z,2.70
2023-01-13T06:01:07.227Z,2.50
2023-01-13T06:02:07.016Z,3.40
2023-01-13T06:03:07.049Z,3.30
2023-01-13T06:04:07.036Z,3.40
2023-01-13T06:05:06.993Z,4.00
2023-01-13T06:06:06.971Z,2.80
2023-01-13T06:07:06.952Z,3.10
2023-01-13T06:08:06.954Z,3.20
2023-01-13T06:09:06.953Z,2.90
2023-01-13T06:10:06.915Z,3.00
2023-01-13T06:11:06.907Z,2.70
2023-01-13T06:12:06.896Z,3.80
2023-01-13T06:13:06.900Z,2.70
2023-01-13T06:14:06.880Z,3.50
2023-01-13T06:15:06.893Z,3.10
2023-01-13T06:16:06.882Z,3.10
2023-01-13T06:17:06.856Z,2.80
2023-01-13T06:18:06.835Z,3.20
2023-01-13T06:19:06.844Z,2.90
2023-01-13T06:20:06.828Z,3.10
2023-01-13T06:21:06.813Z,3.40
2023-01-13T06:22:06.796Z,3.70
2023-01-13T06:23:06.777Z,2.70
2023-01-13T06:24:06.772Z,3.10
2023-01-13T06:25:06.777Z,2.90
2023-01-13T06:26:06.749Z,2.80
2023-01-13T06:27:06.734Z,2.90
2023-01-13T06:28:06.739Z,3.20
2023-01-13T06:29:06.732Z,3.30
2023-01-13T06:30:06.723Z,2.80
2023-01-13T06:31:06.781Z,3.30
2023-01-13T06:32:06.699Z,3.20
2023-01-13T06:33:06.689Z,3.80
2023-01-13T06:34:06.657Z,3.20
2023-01-13T06:35:06.668Z,3.40
2023-01-13T06:36:06.644Z,3.20
2023-01-13T06:37:06.641Z,3.60
2023-01-13T06:38:06.617Z,3.50
2023-01-13T06:39:06.620Z,3.70
2023-01-13T06:40:06.619Z,2.80
2023-01-13T06:41:06.595Z,3.30
2023-01-13T06:42:06.578Z,2.80
2023-01-13T06:43:06.575Z,3.70
2023-01-13T06:44:06.561Z,3.20
2023-01-13T06:45:06.565Z,3.10
2023-01-13T06:46:06.540Z,4.00
2023-01-13T06:47:06.521Z,3.10
2023-01-13T06:48:06.509Z,3.20
2023-01-13T06:49:06.494Z,3.30
2023-01-13T06:50:06.509Z,3.50
2023-01-13T06:51:06.487Z,3.40
2023-01-13T06:52:06.473Z,4.00
2023-01-13T06:53:06.463Z,3.70
2023-01-13T06:54:06.452Z,4.00
2023-01-13T06:55:06.454Z,4.00
2023-01-13T06:56:06.483Z,3.90
2023-01-13T06:57:06.418Z,4.10
2023-01-13T06:58:06.415Z,3.90
2023-01-13T06:59:06.392Z,3.90
2023-01-13T07:00:06.396Z,3.60
2023-01-13T07:01:06.479Z,4.40
2023-01-13T07:02:06.419Z,3.70
2023-01-13T07:03:07.188Z,3.50
2023-01-13T07:04:06.332Z,3.40
2023-01-13T07:05:06.340Z,3.90
2023-01-13T07:06:06.305Z,4.30
2023-01-13T07:07:06.294Z,3.40
2023-01-13T07:08:06.297Z,3.80
2023-01-13T07:09:06.986Z,4.10
2023-01-13T07:10:06.294Z,3.90
2023-01-13T07:11:06.262Z,3.40
2023-01-13T07:12:06.256Z,3.80
2023-01-13T07:13:06.237Z,4.20
2023-01-13T07:14:06.224Z,3.20
2023-01-13T07:15:06.220Z,3.60
2023-01-13T07:16:06.299Z,3.80
2023-01-13T07:17:06.192Z,3.80
2023-01-13T07:18:06.174Z,3.20
2023-01-13T07:19:06.169Z,3.60
2023-01-13T07:20:06.186Z,3.00
2023-01-13T07:21:06.162Z,3.70
2023-01-13T07:22:06.134Z,3.90
2023-01-13T07:23:06.137Z,4.90
2023-01-13T07:24:06.113Z,3.10
2023-01-13T07:25:06.127Z,4.10
2023-01-13T07:26:06.102Z,3.50
2023-01-13T07:27:06.093Z,4.40
2023-01-13T07:28:06.062Z,3.40
2023-01-13T07:29:06.056Z,4.00
2023-01-13T07:30:06.083Z,3.70
2023-01-13T07:31:06.031Z,4.40
2023-01-13T07:32:06.142Z,3.60
2023-01-13T07:33:06.022Z,3.80
2023-01-13T07:34:06.506Z,3.30
2023-01-13T07:35:06.009Z,3.70
2023-01-13T07:36:05.975Z,3.80
2023-01-13T07:37:05.981Z,4.10
2023-01-13T07:38:05.973Z,3.50
2023-01-13T07:39:05.955Z,4.30
2023-01-13T07:40:05.957Z,4.10
2023-01-13T07:41:05.927Z,3.80
2023-01-13T07:42:05.918Z,3.50
2023-01-13T07:43:05.905Z,3.40
2023-01-13T07:44:05.890Z,3.80
2023-01-13T07:45:05.906Z,2.80
2023-01-13T07:46:05.943Z,4.20
2023-01-13T07:47:05.900Z,4.10
2023-01-13T07:48:05.861Z,3.20
2023-01-13T07:49:05.873Z,3.40
2023-01-13T07:50:05.870Z,3.90
2023-01-13T07:51:05.844Z,4.20
2023-01-13T07:52:05.808Z,4.30
2023-01-13T07:53:05.791Z,3.80
2023-01-13T07:54:05.793Z,3.60
2023-01-13T07:55:05.783Z,3.10
2023-01-13T07:56:05.784Z,4.00
2023-01-13T07:57:05.790Z,3.20
2023-01-13T07:58:05.760Z,3.60
2023-01-13T07:59:05.754Z,3.50
2023-01-13T08:00:05.729Z,3.30
2023-01-13T08:01:05.851Z,3.60
2023-01-13T08:02:05.995Z,3.30
2023-01-13T08:03:05.696Z,3.00
2023-01-13T08:04:05.678Z,4.50
2023-01-13T08:05:05.694Z,3.50
2023-01-13T08:06:05.660Z,3.60
2023-01-13T08:07:05.646Z,3.90
2023-01-13T08:08:05.654Z,3.60
2023-01-13T08:09:05.648Z,3.60
2023-01-13T08:10:05.646Z,2.80
2023-01-13T08:11:05.630Z,2.90
2023-01-13T08:12:05.598Z,3.30
2023-01-13T08:13:05.579Z,3.30
2023-01-13T08:14:05.571Z,3.30
2023-01-13T08:15:05.579Z,3.80
2023-01-13T08:16:05.547Z,3.40
2023-01-13T08:17:05.570Z,3.80
2023-01-13T08:18:05.537Z,4.10
2023-01-13T08:19:05.542Z,3.10
2023-01-13T08:20:05.541Z,3.40
2023-01-13T08:21:05.492Z,3.00
2023-01-13T08:22:05.491Z,3.50
2023-01-13T08:23:07.233Z,3.20
2023-01-13T08:24:05.461Z,3.40
2023-01-13T08:25:05.498Z,3.10
2023-01-13T08:26:05.452Z,2.80
2023-01-13T08:27:05.434Z,3.30
2023-01-13T08:28:05.415Z,2.80
2023-01-13T08:29:05.420Z,3.40
2023-01-13T08:30:05.431Z,3.60
2023-01-13T08:31:05.441Z,3.50
2023-01-13T08:32:05.373Z,2.60
2023-01-13T08:33:05.372Z,3.70
2023-01-13T08:34:05.343Z,3.30
2023-01-13T08:35:05.385Z,3.10
2023-01-13T08:36:05.339Z,2.80
2023-01-13T08:37:05.313Z,3.10
2023-01-13T08:38:05.328Z,2.90
2023-01-13T08:39:05.357Z,3.60
2023-01-13T08:40:05.346Z,3.70
2023-01-13T08:41:05.292Z,3.70
2023-01-13T08:42:05.281Z,3.60
2023-01-13T08:43:05.261Z,3.30
2023-01-13T08:44:05.248Z,3.50
2023-01-13T08:45:05.240Z,4.00
2023-01-13T08:46:05.344Z,2.70
2023-01-13T08:47:05.280Z,3.40
2023-01-13T08:48:05.247Z,3.50
2023-01-13T08:49:05.225Z,2.80
2023-01-13T08:50:05.220Z,3.50
2023-01-13T08:51:05.172Z,4.00
2023-01-13T08:52:05.201Z,2.80
2023-01-13T08:53:05.193Z,3.50
2023-01-13T08:54:05.168Z,3.10
2023-01-13T08:55:05.183Z,4.10
2023-01-13T08:56:05.208Z,3.60
2023-01-13T08:57:05.204Z,2.80
2023-01-13T08:58:15.435Z,2.70
2023-01-13T08:59:05.086Z,3.20
2023-01-13T09:00:05.088Z,2.70
2023-01-13T09:01:05.166Z,2.90
2023-01-13T09:02:05.131Z,3.60
2023-01-13T09:03:05.046Z,2.80
2023-01-13T09:04:05.059Z,3.20
2023-01-13T09:05:05.039Z,3.00
2023-01-13T09:06:05.004Z,2.70
2023-01-13T09:07:05.002Z,2.90
2023-01-13T09:08:04.973Z,3.30
2023-01-13T09:09:04.978Z,2.90
2023-01-13T09:10:04.965Z,3.10
2023-01-13T09:11:04.942Z,2.80
2023-01-13T09:12:04.931Z,3.40
2023-01-13T09:13:04.928Z,2.20
2023-01-13T09:14:04.906Z,3.00
2023-01-13T09:15:04.911Z,3.30
2023-01-13T09:16:04.931Z,2.60
2023-01-13T09:17:04.880Z,2.70
2023-01-13T09:18:04.864Z,2.60
2023-01-13T09:19:04.857Z,2.70
2023-01-13T09:20:04.854Z,3.30
2023-01-13T09:21:04.837Z,2.20
2023-01-13T09:22:04.815Z,2.60
2023-01-13T09:23:04.816Z,3.00
2023-01-13T09:24:04.793Z,2.60
2023-01-13T09:25:04.792Z,2.80
2023-01-13T09:26:04.785Z,2.60
2023-01-13T09:27:04.775Z,3.00
2023-01-13T09:28:04.761Z,2.50
2023-01-13T09:29:04.765Z,3.30
2023-01-13T09:30:04.733Z,2.90
2023-01-13T09:31:04.785Z,1.90
2023-01-13T09:32:04.703Z,2.90
2023-01-13T09:33:04.693Z,2.00
2023-01-13T09:34:04.701Z,2.60
2023-01-13T09:35:04.672Z,2.40
2023-01-13T09:36:04.695Z,2.70
2023-01-13T09:37:04.671Z,2.50
2023-01-13T09:38:04.649Z,2.50
2023-01-13T09:40:34.563Z,2.20
2023-01-13T09:41:35.544Z,2.40
2023-01-13T09:42:35.523Z,2.30
2023-01-13T09:43:35.521Z,2.10
2023-01-13T09:44:35.525Z,2.10
2023-01-13T09:45:35.529Z,2.80
2023-01-13T09:46:35.516Z,2.30
2023-01-13T09:47:35.667Z,2.10
2023-01-13T09:48:35.466Z,2.40
2023-01-13T09:49:35.464Z,2.40
2023-01-13T09:50:35.464Z,2.30
2023-01-13T09:51:35.482Z,3.00
2023-01-13T09:52:35.438Z,2.20
2023-01-13T09:53:35.417Z,2.30
2023-01-13T09:54:35.404Z,2.10
2023-01-13T09:55:35.420Z,2.10
2023-01-13T09:56:35.373Z,2.00
2023-01-13T09:57:35.612Z,2.50
2023-01-13T09:58:35.376Z,2.10
2023-01-13T09:59:35.364Z,2.40
2023-01-13T10:00:35.367Z,2.20
2023-01-13T10:01:35.342Z,3.10
2023-01-13T10:02:35.312Z,2.60
2023-01-13T10:03:35.319Z,1.90
2023-01-13T10:04:35.338Z,2.70
2023-01-13T10:05:35.310Z,2.40
2023-01-13T10:06:35.267Z,1.80
2023-01-13T10:07:35.885Z,2.20
2023-01-13T10:08:35.257Z,1.70
2023-01-13T10:09:35.267Z,1.90
2023-01-13T10:10:35.256Z,2.30
2023-01-13T10:11:35.231Z,2.30
2023-01-13T10:12:35.222Z,2.30
2023-01-13T10:13:35.192Z,2.00
2023-01-13T10:14:35.194Z,2.10
2023-01-13T10:15:35.202Z,1.80
2023-01-13T10:16:35.160Z,2.10
2023-01-13T10:17:35.172Z,1.60
2023-01-13T10:18:35.168Z,2.20
2023-01-13T10:19:35.155Z,2.00
2023-01-13T10:20:35.142Z,1.80
2023-01-13T10:21:35.123Z,2.00
2023-01-13T10:22:35.138Z,2.10
2023-01-13T10:23:35.089Z,2.70
2023-01-13T10:24:35.073Z,2.40
2023-01-13T10:25:35.092Z,2.00
2023-01-13T10:26:35.075Z,2.00
2023-01-13T10:27:35.046Z,1.90
2023-01-13T10:28:35.038Z,2.10
2023-01-13T10:29:35.031Z,2.00
2023-01-13T10:30:35.157Z,1.80
2023-01-13T10:31:35.073Z,2.10
2023-01-13T10:32:34.995Z,2.20
2023-01-13T10:33:35.060Z,2.20
2023-01-13T10:34:34.974Z,1.90
2023-01-13T10:35:35.021Z,2.30
2023-01-13T10:36:34.983Z,2.00
2023-01-13T10:37:34.945Z,1.80
2023-01-13T10:38:34.931Z,2.00
2023-01-13T10:39:34.944Z,1.70
2023-01-13T10:40:34.915Z,2.70
2023-01-13T10:41:34.890Z,2.20
2023-01-13T10:42:35.450Z,2.30
2023-01-13T10:43:34.908Z,1.90
2023-01-13T10:44:34.867Z,2.50
2023-01-13T10:45:34.882Z,1.80
2023-01-13T10:46:34.854Z,2.50
2023-01-13T10:47:34.861Z,2.10
2023-01-13T10:48:34.838Z,1.70
2023-01-13T10:49:34.814Z,2.40
2023-01-13T10:50:34.840Z,2.40
2023-01-13T10:51:34.792Z,2.30
2023-01-13T10:52:34.781Z,1.90
2023-01-13T10:53:34.786Z,2.20
2023-01-13T10:54:34.784Z,2.40
2023-01-13T10:55:34.766Z,2.20
2023-01-13T10:56:34.727Z,2.40
2023-01-13T10:57:34.736Z,1.70
2023-01-13T10:58:34.728Z,1.90
2023-01-13T10:59:34.692Z,2.10
2023-01-13T11:00:34.716Z,2.40
2023-01-13T11:01:34.820Z,2.20
2023-01-13T11:02:34.708Z,1.50
2023-01-13T11:03:34.653Z,1.80
2023-01-13T11:04:34.695Z,2.30
2023-01-13T11:05:34.645Z,2.10
2023-01-13T11:06:34.663Z,2.20
2023-01-13T11:07:34.679Z,2.10
2023-01-13T11:08:34.595Z,2.30
2023-01-13T11:09:34.632Z,2.20
2023-01-13T11:10:34.646Z,2.10
2023-01-13T11:11:34.575Z,2.40
2023-01-13T11:12:34.598Z,2.50
2023-01-13T11:13:34.552Z,2.00
2023-01-13T11:14:34.533Z,2.20
2023-01-13T11:15:34.619Z,2.40
2023-01-13T11:16:34.557Z,2.60
2023-01-13T11:17:34.542Z,2.00
2023-01-13T11:18:34.525Z,2.10
2023-01-13T11:19:36.524Z,1.80
2023-01-13T11:20:34.511Z,2.20
2023-01-13T11:21:34.464Z,2.30
2023-01-13T11:22:34.472Z,1.80
2023-01-13T11:23:34.438Z,2.10
2023-01-13T11:24:34.444Z,2.30
2023-01-13T11:25:34.439Z,2.00
2023-01-13T11:26:34.412Z,2.80
2023-01-13T11:27:34.425Z,2.00
2023-01-13T11:28:34.395Z,2.40
2023-01-13T11:29:34.395Z,2.50
2023-01-13T11:30:34.400Z,3.00
2023-01-13T11:31:34.438Z,2.60
2023-01-13T11:32:34.347Z,2.30
2023-01-13T11:33:34.332Z,2.10
2023-01-13T11:34:34.339Z,2.10
2023-01-13T11:35:34.328Z,1.80
2023-01-13T11:36:34.323Z,2.20
2023-01-13T11:37:34.318Z,1.90
2023-01-13T11:38:34.281Z,1.70
2023-01-13T11:39:34.273Z,1.90
2023-01-13T11:40:34.327Z,1.70
2023-01-13T11:41:34.253Z,1.70
2023-01-13T11:42:36.587Z,1.70
2023-01-13T11:43:34.227Z,1.70
2023-01-13T11:44:34.219Z,2.00
2023-01-13T11:45:34.217Z,1.90
2023-01-13T11:46:34.230Z,2.10
2023-01-13T11:47:34.188Z,1.70
2023-01-13T11:48:34.174Z,1.80
2023-01-13T11:49:34.185Z,1.70
2023-01-13T11:50:34.158Z,1.60
2023-01-13T11:51:34.163Z,1.30
2023-01-13T11:52:34.139Z,1.50
2023-01-13T11:53:34.129Z,1.70
2023-01-13T11:54:34.129Z,1.60
2023-01-13T11:55:34.101Z,1.70
2023-01-13T11:56:34.114Z,1.40
2023-01-13T11:57:34.084Z,1.70
2023-01-13T11:58:45.611Z,1.60
2023-01-13T11:59:34.065Z,2.30
2023-01-13T12:00:34.046Z,1.50
2023-01-13T12:01:34.094Z,1.60
2023-01-13T12:02:34.019Z,1.90
2023-01-13T12:03:34.057Z,1.90
2023-01-13T12:04:33.998Z,2.10
2023-01-13T12:05:33.985Z,1.70
2023-01-13T12:06:33.992Z,1.70
2023-01-13T12:07:33.964Z,1.80
2023-01-13T12:08:33.951Z,2.70
2023-01-13T12:09:33.943Z,2.00
2023-01-13T12:10:33.962Z,2.40
2023-01-13T12:11:33.952Z,2.40
2023-01-13T12:12:33.931Z,2.30
2023-01-13T12:13:33.908Z,2.10
2023-01-13T12:14:33.891Z,2.00
2023-01-13T12:15:33.879Z,2.30
2023-01-13T12:16:33.979Z,1.90
2023-01-13T12:17:33.858Z,2.10
2023-01-13T12:18:33.855Z,2.00
2023-01-13T12:19:33.839Z,2.20
2023-01-13T12:20:33.825Z,2.10
2023-01-13T12:21:33.842Z,2.00
2023-01-13T12:22:35.979Z,2.30
2023-01-13T12:23:33.803Z,1.90
2023-01-13T12:24:33.787Z,2.10
2023-01-13T12:25:33.766Z,2.20
2023-01-13T12:26:33.796Z,2.60
2023-01-13T12:27:33.778Z,1.90
2023-01-13T12:28:33.783Z,2.40
2023-01-13T12:29:33.756Z,2.40
2023-01-13T12:30:33.725Z,2.30
2023-01-13T12:31:33.810Z,2.30
2023-01-13T12:32:33.709Z,2.20
2023-01-13T12:33:33.695Z,2.20
2023-01-13T12:34:33.686Z,2.10
2023-01-13T12:35:33.666Z,2.20
2023-01-13T12:36:33.683Z,2.10
2023-01-13T12:37:33.654Z,2.50
2023-01-13T12:38:34.507Z,2.00
2023-01-13T12:39:33.624Z,2.20
2023-01-13T12:40:33.638Z,2.20
2023-01-13T12:41:33.632Z,2.70
2023-01-13T12:42:33.602Z,2.60
2023-01-13T12:43:33.583Z,2.50
2023-01-13T12:44:33.585Z,2.20
2023-01-13T12:45:33.657Z,2.70
2023-01-13T12:46:33.565Z,2.00
2023-01-13T12:47:33.596Z,2.50
2023-01-13T12:48:33.527Z,2.10
2023-01-13T12:49:33.536Z,2.50
2023-01-13T12:50:33.505Z,2.10
2023-01-13T12:51:33.535Z,2.80
2023-01-13T12:52:33.492Z,2.70
2023-01-13T12:53:33.481Z,2.60
2023-01-13T12:54:33.466Z,2.20
2023-01-13T12:55:33.465Z,2.20
2023-01-13T12:56:35.461Z,2.10
2023-01-13T12:57:33.429Z,2.20
2023-01-13T12:58:33.420Z,2.60
2023-01-13T12:59:33.417Z,2.30
2023-01-13T13:00:33.407Z,2.70
2023-01-13T13:01:33.498Z,2.50
2023-01-13T13:02:33.426Z,2.60
2023-01-13T13:03:33.394Z,1.80
2023-01-13T13:04:33.362Z,2.50
2023-01-13T13:05:33.342Z,2.70
2023-01-13T13:06:33.354Z,2.40
2023-01-13T13:07:33.334Z,2.50
2023-01-13T13:08:33.307Z,3.20
2023-01-13T13:09:33.330Z,1.90
2023-01-13T13:10:33.287Z,2.70
2023-01-13T13:11:33.321Z,2.30
2023-01-13T13:12:33.266Z,2.20
2023-01-13T13:13:33.265Z,2.20
2023-01-13T13:14:33.271Z,2.20
2023-01-13T13:15:33.240Z,3.00
2023-01-13T13:16:33.294Z,2.70
2023-01-13T13:17:33.247Z,1.80
2023-01-13T13:18:33.210Z,2.70
2023-01-13T13:19:33.220Z,2.50